createdAt,value
2022-12-23T00:01:58.516Z,7.07
2022-12-23T00:04:45.526Z,8.18
2022-12-23T00:07:32.704Z,7.00
2022-12-23T00:10:19.504Z,8.25
2022-12-23T00:13:26.146Z,7.85
2022-12-23T00:16:14.661Z,10.65
2022-12-23T00:19:08.947Z,6.93
2022-12-23T00:21:55.792Z,8.30
2022-12-23T00:24:48.860Z,7.88
2022-12-23T00:27:38.528Z,7.15
2022-12-23T00:30:25.357Z,8.32
2022-12-23T00:33:13.148Z,9.82
2022-12-23T00:36:10.703Z,7.57
2022-12-23T00:39:17.154Z,8.15
2022-12-23T00:42:22.535Z,9.27
2022-12-23T00:45:18.142Z,9.77
2022-12-23T00:48:26.726Z,8.70
2022-12-23T00:51:13.694Z,9.60
2022-12-23T00:54:00.932Z,7.55
2022-12-23T00:56:47.753Z,9.45
2022-12-23T00:59:38.534Z,7.97
2022-12-23T01:02:44.233Z,8.68
2022-12-23T01:05:36.910Z,10.43
2022-12-23T01:08:26.875Z,9.57
2022-12-23T01:11:13.806Z,9.18
2022-12-23T01:14:03.815Z,9.18
2022-12-23T01:16:50.654Z,10.50
2022-12-23T01:19:37.683Z,9.02
2022-12-23T01:22:24.515Z,7.97
2022-12-23T01:25:11.448Z,9.55
2022-12-23T01:28:00.368Z,9.38
2022-12-23T01:30:47.207Z,9.43
2022-12-23T01:33:34.053Z,8.73
2022-12-23T01:36:22.078Z,8.98
2022-12-23T01:39:08.992Z,10.82
2022-12-23T01:42:14.379Z,10.68
2022-12-23T01:45:05.255Z,9.18
2022-12-23T01:47:57.817Z,8.55
2022-12-23T01:50:45.269Z,9.32
2022-12-23T01:53:37.575Z,10.23
2022-12-23T01:56:36.791Z,7.32
2022-12-23T02:03:01.301Z,9.52
2022-12-23T02:05:48.379Z,10.25
2022-12-23T02:08:53.803Z,8.57
2022-12-23T02:12:07.807Z,8.85
2022-12-23T02:15:51.320Z,10.80
2022-12-23T02:19:10.513Z,9.10
2022-12-23T02:22:09.183Z,9.60
2022-12-23T02:25:25.351Z,9.77
2022-12-23T02:28:40.933Z,10.98
2022-12-23T02:31:46.267Z,9.63
2022-12-23T02:34:51.381Z,8.95
2022-12-23T02:37:56.997Z,9.63
2022-12-23T02:40:54.333Z,10.13
2022-12-23T02:44:27.795Z,9.70
2022-12-23T02:47:22.554Z,8.75
2022-12-23T02:50:14.594Z,9.20
2022-12-23T02:53:09.141Z,8.05
2022-12-23T02:55:56.440Z,8.73
2022-12-23T02:58:49.179Z,8.77
2022-12-23T03:01:36.821Z,9.40
2022-12-23T03:04:23.912Z,9.32
2022-12-23T03:07:35.759Z,9.07
2022-12-23T03:10:40.557Z,9.02
2022-12-23T03:13:38.692Z,8.38
2022-12-23T03:16:50.159Z,8.85
2022-12-23T03:19:44.790Z,8.82
2022-12-23T03:22:50.574Z,8.10
2022-12-23T03:26:00.837Z,8.75
2022-12-23T03:29:02.149Z,8.32
2022-12-23T03:31:49.834Z,8.05
2022-12-23T03:34:43.239Z,8.68
2022-12-23T03:41:35.005Z,8.50
2022-12-23T03:49:29.132Z,7.90
2022-12-23T04:01:26.553Z,8.55
2022-12-23T04:09:05.506Z,8.90
2022-12-23T04:20:29.731Z,7.72
2022-12-23T04:35:00.300Z,7.05
2022-12-23T04:37:48.448Z,6.95
2022-12-23T04:40:35.265Z,6.50
2022-12-23T04:43:24.301Z,7.53
2022-12-23T04:46:12.471Z,7.30
2022-12-23T04:48:59.343Z,6.30
2022-12-23T04:51:46.181Z,7.43
2022-12-23T04:54:38.131Z,6.78
2022-12-23T04:57:29.743Z,6.25
2022-12-23T05:00:16.889Z,6.90
2022-12-23T05:03:03.933Z,7.13
2022-12-23T05:05:50.982Z,6.60
2022-12-23T05:08:37.910Z,6.30
2022-12-23T05:11:24.697Z,6.28
2022-12-23T05:14:12.203Z,5.97
2022-12-23T05:17:05.258Z,7.00
2022-12-23T05:19:54.073Z,5.97
2022-12-23T05:22:43.948Z,6.72
2022-12-23T05:25:33.442Z,6.70
2022-12-23T05:28:21.921Z,6.25
2022-12-23T05:31:08.872Z,7.10
2022-12-23T05:33:58.359Z,7.30
2022-12-23T05:36:47.840Z,6.30
2022-12-23T05:39:37.277Z,5.97
2022-12-23T05:42:36.040Z,6.13
2022-12-23T05:45:23.146Z,6.68
2022-12-23T05:48:10.638Z,7.03
2022-12-23T05:50:57.489Z,6.47
2022-12-23T05:53:50.436Z,6.85
2022-12-23T05:56:40.670Z,6.97
2022-12-23T05:59:31.318Z,7.30
2022-12-23T06:02:18.856Z,6.88
2022-12-23T06:05:06.439Z,7.88
2022-12-23T06:08:02.241Z,7.10
2022-12-23T06:10:49.137Z,7.32
2022-12-23T06:13:35.925Z,7.00
2022-12-23T06:16:22.897Z,7.55
2022-12-23T06:19:12.314Z,7.18
2022-12-23T06:21:59.208Z,7.93
2022-12-23T06:24:49.401Z,8.43
2022-12-23T06:27:36.212Z,7.05
2022-12-23T06:30:34.406Z,6.90
2022-12-23T06:33:21.944Z,7.80
2022-12-23T06:36:08.971Z,7.53
2022-12-23T06:38:55.787Z,6.93
2022-12-23T06:41:45.844Z,7.40
2022-12-23T06:44:32.703Z,7.70
2022-12-23T06:47:19.537Z,7.65
2022-12-23T06:50:09.331Z,6.65
2022-12-23T06:52:58.022Z,7.32
2022-12-23T06:55:47.115Z,7.93
2022-12-23T06:58:33.945Z,6.60
2022-12-23T07:01:20.899Z,7.47
2022-12-23T07:04:07.748Z,7.25
2022-12-23T07:06:57.988Z,7.57
2022-12-23T07:09:47.304Z,7.95
2022-12-23T07:12:34.140Z,7.25
2022-12-23T07:15:20.911Z,7.53
2022-12-23T07:18:08.902Z,8.02
2022-12-23T07:21:00.801Z,7.25
2022-12-23T07:23:48.008Z,7.95
2022-12-23T07:26:34.836Z,7.65
2022-12-23T07:29:21.610Z,7.32
2022-12-23T07:32:10.794Z,7.30
2022-12-23T07:37:46.134Z,8.10
2022-12-23T07:40:32.930Z,7.63
2022-12-23T07:43:19.698Z,7.05
2022-12-23T07:46:08.186Z,7.25
2022-12-23T07:49:00.435Z,7.82
2022-12-23T07:51:47.341Z,8.02
2022-12-23T07:54:34.182Z,7.05
2022-12-23T07:57:20.946Z,7.68
2022-12-23T08:03:11.651Z,7.80
2022-12-23T08:06:06.952Z,7.60
2022-12-23T08:08:55.740Z,7.63
2022-12-23T08:11:42.510Z,8.02
2022-12-23T08:14:29.287Z,7.82
2022-12-23T08:17:16.136Z,7.35
2022-12-23T08:20:03.057Z,7.53
2022-12-23T08:22:49.918Z,8.27
2022-12-23T08:25:36.728Z,8.13
2022-12-23T08:28:23.558Z,7.68
2022-12-23T08:31:18.820Z,7.22
2022-12-23T08:34:05.731Z,7.32
2022-12-23T08:36:52.594Z,9.82
2022-12-23T08:39:39.395Z,8.27
2022-12-23T08:42:26.178Z,9.35
2022-12-23T08:45:12.973Z,8.30
2022-12-23T08:47:59.737Z,8.25
2022-12-23T08:50:46.996Z,7.22
2022-12-23T08:53:35.064Z,8.38
2022-12-23T08:56:23.190Z,7.82
2022-12-23T08:59:19.148Z,7.60
2022-12-23T09:02:06.727Z,6.78
2022-12-23T09:04:56.559Z,5.60
2022-12-23T09:07:43.361Z,6.22
2022-12-23T09:10:30.157Z,6.57
2022-12-23T09:13:26.380Z,5.15
2022-12-23T09:16:17.935Z,6.78
2022-12-23T09:19:04.960Z,6.07
2022-12-23T09:21:51.699Z,5.97
2022-12-23T09:24:40.035Z,5.85
2022-12-23T09:27:26.944Z,6.60
2022-12-23T09:30:21.718Z,4.43
2022-12-23T09:33:09.042Z,5.30
2022-12-23T09:35:59.817Z,5.88
2022-12-23T09:38:46.959Z,5.10
2022-12-23T09:41:50.545Z,5.95
2022-12-23T09:45:03.891Z,6.50
2022-12-23T09:47:51.777Z,5.13
2022-12-23T09:50:41.904Z,4.25
2022-12-23T09:53:56.747Z,4.50
2022-12-23T09:57:02.501Z,5.32
2022-12-23T10:00:04.259Z,5.68
2022-12-23T10:03:00.643Z,4.45
2022-12-23T10:06:00.344Z,4.70
2022-12-23T10:08:49.229Z,4.65
2022-12-23T10:11:40.102Z,4.68
2022-12-23T10:14:29.891Z,4.32
2022-12-23T10:17:26.127Z,5.03
2022-12-23T10:20:31.946Z,4.07
2022-12-23T10:23:28.351Z,5.35
2022-12-23T10:26:29.549Z,3.83
2022-12-23T10:29:19.723Z,3.65
2022-12-23T10:32:51.474Z,3.90
2022-12-23T10:36:01.673Z,3.65
2022-12-23T10:38:57.162Z,3.75
2022-12-23T10:42:08.368Z,3.63
2022-12-23T10:45:06.988Z,3.88
2022-12-23T10:48:25.683Z,4.50
2022-12-23T10:51:32.912Z,3.88
2022-12-23T10:54:27.193Z,3.25
2022-12-23T10:57:15.986Z,4.32
2022-12-23T11:00:14.563Z,2.83
2022-12-23T11:03:14.435Z,3.65
2022-12-23T11:06:01.906Z,3.65
2022-12-23T11:08:51.436Z,3.85
2022-12-23T11:11:54.561Z,3.70
2022-12-23T11:14:53.802Z,4.07
2022-12-23T11:17:40.927Z,3.40
2022-12-23T11:20:29.221Z,4.13
2022-12-23T11:23:28.191Z,4.40
2022-12-23T11:26:19.580Z,3.45
2022-12-23T11:29:11.450Z,3.50
2022-12-23T11:31:58.294Z,4.22
2022-12-23T11:34:46.175Z,3.30
2022-12-23T11:37:37.756Z,3.30
2022-12-23T11:40:29.055Z,3.08
2022-12-23T11:43:16.557Z,3.60
2022-12-23T11:46:27.547Z,4.25
2022-12-23T11:49:23.581Z,4.43
2022-12-23T11:52:17.986Z,4.65
2022-12-23T11:55:07.210Z,4.57
2022-12-23T11:57:54.064Z,2.83
2022-12-23T12:00:42.887Z,3.45
2022-12-23T12:03:35.809Z,3.08
2022-12-23T12:06:22.916Z,3.58
2022-12-23T12:09:14.678Z,4.97
2022-12-23T12:12:07.470Z,3.20
2022-12-23T12:14:58.544Z,3.75
2022-12-23T12:17:48.512Z,4.05
2022-12-23T12:20:47.177Z,4.25
2022-12-23T12:23:45.247Z,3.58
2022-12-23T12:26:35.004Z,3.72
2022-12-23T12:29:31.036Z,4.00
2022-12-23T12:32:33.258Z,4.28
2022-12-23T12:35:26.852Z,3.97
2022-12-23T12:38:20.421Z,3.78
2022-12-23T12:41:14.924Z,4.40
2022-12-23T12:44:26.783Z,4.95
2022-12-23T12:47:44.547Z,4.13
2022-12-23T12:50:31.171Z,3.25
2022-12-23T12:53:21.520Z,3.45
2022-12-23T12:56:16.044Z,3.60
2022-12-23T12:59:03.624Z,4.32
2022-12-23T13:02:06.606Z,4.32
2022-12-23T13:05:16.601Z,3.92
2022-12-23T13:08:27.803Z,3.75
2022-12-23T13:11:45.060Z,3.10
2022-12-23T13:14:46.679Z,3.72
2022-12-23T13:17:46.379Z,4.53
2022-12-23T13:20:43.337Z,3.67
2022-12-23T13:24:03.916Z,3.30
2022-12-23T13:27:09.925Z,3.97
2022-12-23T13:30:02.689Z,2.97
2022-12-23T13:33:07.215Z,3.55
2022-12-23T13:36:13.358Z,3.65
2022-12-23T13:39:23.560Z,3.30
2022-12-23T13:42:23.548Z,2.88
2022-12-23T13:45:17.364Z,3.10
2022-12-23T13:48:22.104Z,2.92
2022-12-23T13:51:22.824Z,4.10
2022-12-23T13:54:23.645Z,3.88
2022-12-23T13:57:15.505Z,3.05
2022-12-23T14:00:24.500Z,3.55
2022-12-23T14:03:12.728Z,3.65
2022-12-23T14:05:59.630Z,3.87
2022-12-23T14:08:53.767Z,4.18
2022-12-23T14:11:44.946Z,3.50
2022-12-23T14:14:32.018Z,3.20
2022-12-23T14:17:28.410Z,3.45
2022-12-23T14:20:21.758Z,2.63
2022-12-23T14:23:17.658Z,3.17
2022-12-23T14:26:16.017Z,3.55
2022-12-23T14:29:35.624Z,2.85
2022-12-23T14:32:26.710Z,3.60
2022-12-23T14:35:23.259Z,3.88
2022-12-23T14:38:16.063Z,3.13
2022-12-23T14:41:22.518Z,4.15
2022-12-23T14:44:46.334Z,3.15
2022-12-23T14:47:35.530Z,3.58
2022-12-23T14:53:25.837Z,4.03
2022-12-23T14:56:23.164Z,3.45
2022-12-23T14:59:13.045Z,4.43
2022-12-23T15:02:06.066Z,4.18
2022-12-23T15:04:57.575Z,4.32
2022-12-23T15:07:52.453Z,4.75
2022-12-23T15:10:39.218Z,4.97
2022-12-23T15:13:27.733Z,4.80
2022-12-23T15:16:16.989Z,4.68
2022-12-23T15:19:20.018Z,4.68
2022-12-23T15:22:20.624Z,5.57
2022-12-23T15:25:26.365Z,5.45
2022-12-23T15:28:18.596Z,5.95
2022-12-23T15:31:06.237Z,6.38
2022-12-23T15:34:03.567Z,5.95
2022-12-23T15:36:54.612Z,5.82
2022-12-23T15:39:46.920Z,6.63
2022-12-23T15:42:35.526Z,6.43
2022-12-23T15:45:34.554Z,6.32
2022-12-23T15:48:29.451Z,6.25
2022-12-23T15:52:05.871Z,7.50
2022-12-23T15:55:10.479Z,7.15
2022-12-23T15:57:58.105Z,7.88
2022-12-23T16:00:51.871Z,7.28
2022-12-23T16:03:43.961Z,7.60
2022-12-23T16:06:33.145Z,7.55
2022-12-23T16:09:19.816Z,7.47
2022-12-23T16:12:24.580Z,8.10
2022-12-23T16:15:27.466Z,8.25
2022-12-23T16:18:25.809Z,7.57
2022-12-23T16:21:13.819Z,8.32
2022-12-23T16:24:01.246Z,8.45
2022-12-23T16:26:48.116Z,8.52
2022-12-23T16:29:35.119Z,8.38
2022-12-23T16:32:22.083Z,7.85
2022-12-23T16:35:11.789Z,7.25
2022-12-23T16:38:13.466Z,8.23
2022-12-23T16:41:00.352Z,7.60
2022-12-23T16:43:51.854Z,8.20
2022-12-23T16:46:43.220Z,7.50
2022-12-23T16:49:33.785Z,8.38
2022-12-23T16:52:21.315Z,7.18
2022-12-23T16:55:15.896Z,7.25
2022-12-23T16:58:25.004Z,7.50
2022-12-23T17:01:17.918Z,7.00
2022-12-23T17:04:05.924Z,7.78
2022-12-23T17:06:52.711Z,6.90
2022-12-23T17:09:39.473Z,6.78
2022-12-23T17:12:28.902Z,7.60
2022-12-23T17:15:18.913Z,7.03
2022-12-23T17:18:14.014Z,7.70
2022-12-23T17:21:00.830Z,7.03
2022-12-23T17:23:48.015Z,7.20
2022-12-23T17:26:35.211Z,6.18
2022-12-23T17:29:22.152Z,6.47
2022-12-23T17:32:12.960Z,7.45
2022-12-23T17:34:59.803Z,7.15
2022-12-23T17:37:46.621Z,6.95
2022-12-23T17:40:33.647Z,7.00
2022-12-23T17:43:23.291Z,7.22
2022-12-23T17:46:22.126Z,7.38
2022-12-23T17:49:09.376Z,6.35
2022-12-23T17:51:56.238Z,6.18
2022-12-23T17:54:43.810Z,5.53
2022-12-23T17:57:34.117Z,6.32
2022-12-23T18:01:01.680Z,4.13
2022-12-23T18:03:52.721Z,4.18
2022-12-23T18:06:39.527Z,3.35
2022-12-23T18:09:28.445Z,3.50
2022-12-23T18:12:26.984Z,2.97
2022-12-23T18:15:30.925Z,2.97
2022-12-23T18:18:31.216Z,3.92
2022-12-23T18:21:26.545Z,3.00
2022-12-23T18:24:13.612Z,2.80
2022-12-23T18:27:02.835Z,3.70
2022-12-23T18:29:51.372Z,3.10
2022-12-23T18:32:40.686Z,3.75
2022-12-23T18:35:38.277Z,3.15
2022-12-23T18:38:25.179Z,3.17
2022-12-23T18:41:15.062Z,3.28
2022-12-23T18:44:01.971Z,2.38
2022-12-23T18:46:49.475Z,2.33
2022-12-23T18:49:44.021Z,2.80
2022-12-23T18:52:30.823Z,4.03
2022-12-23T18:55:20.424Z,2.38
2022-12-23T18:58:20.332Z,2.50
2022-12-23T19:01:16.316Z,2.65
2022-12-23T19:04:06.033Z,2.45
2022-12-23T19:10:05.838Z,3.38
2022-12-23T19:12:59.543Z,3.08
2022-12-23T19:15:51.565Z,2.25
2022-12-23T19:18:46.312Z,2.97
2022-12-23T19:21:38.366Z,2.15
2022-12-23T19:24:25.400Z,2.58
2022-12-23T19:27:12.516Z,3.28
2022-12-23T19:29:59.726Z,1.45
2022-12-23T19:32:48.681Z,1.75
2022-12-23T19:35:35.672Z,2.05
2022-12-23T19:38:38.561Z,2.45
2022-12-23T19:41:25.706Z,2.75
2022-12-23T19:44:19.681Z,2.40
2022-12-23T19:47:08.932Z,2.72
2022-12-23T19:49:56.017Z,2.30
2022-12-23T19:52:48.205Z,1.95
2022-12-23T19:55:37.184Z,1.80
2022-12-23T19:58:26.355Z,2.58
2022-12-23T20:04:30.414Z,2.50
2022-12-23T20:07:17.319Z,2.50
2022-12-23T20:10:10.321Z,2.40
2022-12-23T20:12:59.928Z,2.65
2022-12-23T20:15:46.805Z,1.40
2022-12-23T20:18:34.152Z,3.42
2022-12-23T20:21:23.876Z,2.33
2022-12-23T20:24:10.795Z,2.17
2022-12-23T20:26:58.277Z,2.28
2022-12-23T20:30:05.718Z,2.17
2022-12-23T20:32:52.706Z,2.25
2022-12-23T20:35:44.329Z,2.58
2022-12-23T20:38:38.149Z,2.80
2022-12-23T20:41:38.766Z,3.65
2022-12-23T20:44:35.696Z,2.85
2022-12-23T20:47:31.312Z,2.53
2022-12-23T20:50:18.352Z,2.40
2022-12-23T20:53:13.306Z,2.25
2022-12-23T20:56:01.519Z,2.95
2022-12-23T20:58:54.730Z,3.33
2022-12-23T21:01:41.996Z,2.90
2022-12-23T21:04:30.352Z,1.95
2022-12-23T21:07:17.333Z,2.05
2022-12-23T21:10:13.136Z,2.60
2022-12-23T21:13:07.225Z,2.58
2022-12-23T21:15:54.216Z,4.78
2022-12-23T21:18:53.264Z,3.33
2022-12-23T21:24:26.995Z,3.28
2022-12-23T21:27:13.828Z,1.98
2022-12-23T21:30:03.647Z,2.47
2022-12-23T21:32:51.773Z,2.60
2022-12-23T21:35:47.673Z,2.10
2022-12-23T21:38:39.996Z,2.80
2022-12-23T21:41:29.057Z,2.13
2022-12-23T21:47:05.187Z,1.55
2022-12-23T21:49:52.041Z,2.10
2022-12-23T21:52:38.967Z,1.63
2022-12-23T21:55:31.209Z,3.13
2022-12-23T21:58:18.035Z,1.75
2022-12-23T22:01:13.732Z,2.78
2022-12-23T22:04:00.774Z,2.38
2022-12-23T22:06:55.046Z,2.08
2022-12-23T22:09:41.874Z,2.30
2022-12-23T22:12:28.703Z,1.83
2022-12-23T22:15:15.530Z,1.95
2022-12-23T22:18:04.891Z,2.63
2022-12-23T22:20:51.703Z,1.98
2022-12-23T22:23:44.276Z,2.63
2022-12-23T22:26:32.734Z,2.78
2022-12-23T22:29:22.715Z,1.92
2022-12-23T22:32:15.639Z,2.35
2022-12-23T22:35:02.513Z,1.70
2022-12-23T22:37:49.367Z,2.67
2022-12-23T22:40:36.274Z,1.90
2022-12-23T22:43:23.378Z,2.03
2022-12-23T22:46:10.380Z,2.28
2022-12-23T22:49:00.551Z,2.67
2022-12-23T22:51:47.531Z,3.00
2022-12-23T22:54:34.417Z,2.63
2022-12-23T22:57:25.845Z,2.95
2022-12-23T23:00:13.171Z,3.55
2022-12-23T23:03:00.085Z,2.53
2022-12-23T23:06:04.089Z,2.70
2022-12-23T23:08:50.990Z,1.67
2022-12-23T23:11:41.528Z,2.10
2022-12-23T23:14:29.782Z,1.30
2022-12-23T23:17:16.651Z,2.63
2022-12-23T23:20:03.649Z,2.63
2022-12-23T23:22:51.087Z,2.10
2022-12-23T23:25:38.030Z,3.72
2022-12-23T23:28:24.908Z,2.08
2022-12-23T23:34:18.913Z,2.33
2022-12-23T23:37:05.833Z,3.13
2022-12-23T23:39:55.725Z,3.35
2022-12-23T23:42:42.665Z,2.85
2022-12-23T23:45:30.356Z,2.20
2022-12-23T23:48:18.042Z,1.40
2022-12-23T23:51:09.881Z,2.50
2022-12-23T23:53:56.668Z,3.25
2022-12-23T23:56:43.670Z,2.85
2022-12-23T23:59:30.477Z,2.50
